createdAt,value
2023-03-30T00:00:18.927Z,3.53
2023-03-30T00:01:51.222Z,4.68
2023-03-30T00:03:25.235Z,3.33
2023-03-30T00:05:03.611Z,2.95
2023-03-30T00:06:35.849Z,2.72
2023-03-30T00:08:07.947Z,2.70
2023-03-30T00:09:42.779Z,2.70
2023-03-30T00:11:16.082Z,3.28
2023-03-30T00:12:51.253Z,2.92
2023-03-30T00:14:32.427Z,3.00
2023-03-30T00:16:06.793Z,2.55
2023-03-30T00:17:39.586Z,3.05
2023-03-30T00:19:11.916Z,2.97
2023-03-30T00:20:45.518Z,3.05
2023-03-30T00:23:50.107Z,3.17
2023-03-30T00:25:23.710Z,2.77
2023-03-30T00:26:55.815Z,2.50
2023-03-30T00:28:31.177Z,3.03
2023-03-30T00:30:05.332Z,2.80
2023-03-30T00:31:37.894Z,3.33
2023-03-30T00:33:10.090Z,2.60
2023-03-30T00:34:42.568Z,2.97
2023-03-30T00:36:16.252Z,3.42
2023-03-30T00:37:50.193Z,2.95
2023-03-30T00:39:23.167Z,2.58
2023-03-30T00:41:00.302Z,3.85
2023-03-30T00:42:32.347Z,3.47
2023-03-30T00:44:07.376Z,3.50
2023-03-30T00:45:40.803Z,3.60
2023-03-30T00:47:13.513Z,3.28
2023-03-30T00:48:45.720Z,3.28
2023-03-30T00:50:22.336Z,3.30
2023-03-30T00:51:54.657Z,3.03
2023-03-30T00:53:30.930Z,3.38
2023-03-30T00:55:03.431Z,2.80
2023-03-30T00:56:35.989Z,3.20
2023-03-30T00:58:10.344Z,2.90
2023-03-30T00:59:43.003Z,3.40
2023-03-30T01:01:19.174Z,3.37
2023-03-30T01:02:56.576Z,2.80
2023-03-30T01:04:28.804Z,2.60
2023-03-30T01:06:04.647Z,2.80
2023-03-30T01:07:38.788Z,3.15
2023-03-30T01:09:11.276Z,2.95
2023-03-30T01:10:46.989Z,3.28
2023-03-30T01:12:20.379Z,3.05
2023-03-30T01:13:57.154Z,3.45
2023-03-30T01:15:40.471Z,2.88
2023-03-30T01:17:37.502Z,2.80
2023-03-30T01:19:24.433Z,3.05
2023-03-30T01:21:23.655Z,2.58
2023-03-30T01:23:56.905Z,3.38
2023-03-30T01:25:37.123Z,3.30
2023-03-30T01:27:20.047Z,3.10
2023-03-30T01:28:55.732Z,2.72
2023-03-30T01:30:36.777Z,3.30
2023-03-30T01:32:11.659Z,3.28
2023-03-30T01:33:49.619Z,3.10
2023-03-30T01:35:50.157Z,3.35
2023-03-30T01:37:40.253Z,3.40
2023-03-30T01:39:34.217Z,2.70
2023-03-30T01:41:17.372Z,3.17
2023-03-30T01:42:49.496Z,3.00
2023-03-30T01:44:37.180Z,3.08
2023-03-30T01:46:17.507Z,3.17
2023-03-30T01:47:57.561Z,3.35
2023-03-30T01:49:36.932Z,3.38
2023-03-30T01:52:56.819Z,3.08
2023-03-30T01:54:33.510Z,2.88
2023-03-30T01:56:12.418Z,3.00
2023-03-30T01:57:49.959Z,3.40
2023-03-30T01:59:30.447Z,3.10
2023-03-30T02:01:03.313Z,3.03
2023-03-30T02:02:36.228Z,3.40
2023-03-30T02:04:09.971Z,3.05
2023-03-30T02:05:43.262Z,2.67
2023-03-30T02:07:18.885Z,3.15
2023-03-30T02:08:54.973Z,3.10
2023-03-30T02:10:29.660Z,3.38
2023-03-30T02:12:05.237Z,3.22
2023-03-30T02:13:38.638Z,2.83
2023-03-30T02:15:12.725Z,3.70
2023-03-30T02:16:50.304Z,3.00
2023-03-30T02:18:22.454Z,2.92
2023-03-30T02:19:56.990Z,3.50
2023-03-30T02:21:30.441Z,4.00
2023-03-30T02:23:04.090Z,3.42
2023-03-30T02:24:36.982Z,3.15
2023-03-30T02:26:10.148Z,3.28
2023-03-30T02:27:45.418Z,2.97
2023-03-30T02:29:18.752Z,3.00
2023-03-30T02:30:50.995Z,2.90
2023-03-30T02:32:32.999Z,3.10
2023-03-30T02:34:29.452Z,2.55
2023-03-30T02:36:06.327Z,2.85
2023-03-30T02:38:05.464Z,3.08
2023-03-30T02:39:44.456Z,3.45
2023-03-30T02:41:34.353Z,3.25
2023-03-30T02:43:22.542Z,3.22
2023-03-30T02:45:16.103Z,3.00
2023-03-30T02:46:53.925Z,3.10
2023-03-30T02:48:30.021Z,3.38
2023-03-30T02:50:15.205Z,3.88
2023-03-30T02:51:53.114Z,3.45
2023-03-30T02:53:36.490Z,3.30
2023-03-30T02:55:20.060Z,3.80
2023-03-30T02:56:52.342Z,3.53
2023-03-30T02:58:35.587Z,5.50
2023-03-30T03:00:13.613Z,5.22
2023-03-30T03:01:57.262Z,4.22
2023-03-30T03:03:49.837Z,3.50
2023-03-30T03:05:22.859Z,3.35
2023-03-30T03:06:56.191Z,3.50
2023-03-30T03:08:31.180Z,4.32
2023-03-30T03:10:03.612Z,3.17
2023-03-30T03:11:35.904Z,3.63
2023-03-30T03:13:09.126Z,3.83
2023-03-30T03:14:41.253Z,3.40
2023-03-30T03:16:13.422Z,3.45
2023-03-30T03:17:45.682Z,3.72
2023-03-30T03:20:56.626Z,3.22
2023-03-30T03:22:28.727Z,3.50
2023-03-30T03:24:00.910Z,3.78
2023-03-30T03:25:33.080Z,3.33
2023-03-30T03:27:05.500Z,3.30
2023-03-30T03:28:37.985Z,3.15
2023-03-30T03:30:11.140Z,3.03
2023-03-30T03:31:43.446Z,3.45
2023-03-30T03:33:15.584Z,3.83
2023-03-30T03:34:47.862Z,3.80
2023-03-30T03:36:19.965Z,3.20
2023-03-30T03:37:52.119Z,3.13
2023-03-30T03:39:24.822Z,3.10
2023-03-30T03:40:58.849Z,3.08
2023-03-30T03:42:31.266Z,3.28
2023-03-30T03:44:03.355Z,3.08
2023-03-30T03:45:35.640Z,3.38
2023-03-30T03:47:07.938Z,3.60
2023-03-30T03:48:40.127Z,3.33
2023-03-30T03:50:12.586Z,3.78
2023-03-30T03:51:44.709Z,2.83
2023-03-30T03:53:16.978Z,3.00
2023-03-30T03:54:49.240Z,3.30
2023-03-30T03:56:21.741Z,3.67
2023-03-30T03:57:53.846Z,3.63
2023-03-30T03:59:26.144Z,2.75
2023-03-30T04:01:02.162Z,3.47
2023-03-30T04:02:34.711Z,3.10
2023-03-30T04:05:40.348Z,3.20
2023-03-30T04:07:12.575Z,3.10
2023-03-30T04:08:44.763Z,3.38
2023-03-30T04:10:17.078Z,3.33
2023-03-30T04:11:49.967Z,4.20
2023-03-30T04:13:22.242Z,3.15
2023-03-30T04:14:54.318Z,3.22
2023-03-30T04:16:26.741Z,2.97
2023-03-30T04:17:59.062Z,4.00
2023-03-30T04:19:31.876Z,3.22
2023-03-30T04:21:07.614Z,3.53
2023-03-30T04:22:42.413Z,3.47
2023-03-30T04:24:14.614Z,3.83
2023-03-30T04:25:46.711Z,3.30
2023-03-30T04:27:19.556Z,3.83
2023-03-30T04:28:54.114Z,3.58
2023-03-30T04:30:26.215Z,4.00
2023-03-30T04:32:03.140Z,4.05
2023-03-30T04:33:35.420Z,4.03
2023-03-30T04:35:08.875Z,3.75
2023-03-30T04:36:43.981Z,3.97
2023-03-30T04:38:22.621Z,5.35
2023-03-30T04:39:58.082Z,3.50
2023-03-30T04:41:36.225Z,3.95
2023-03-30T04:43:08.720Z,3.80
2023-03-30T04:44:41.438Z,4.22
2023-03-30T04:46:13.733Z,3.85
2023-03-30T04:47:49.498Z,4.25
2023-03-30T04:49:21.741Z,4.25
2023-03-30T04:50:54.616Z,3.38
2023-03-30T04:52:26.805Z,3.80
2023-03-30T04:53:59.103Z,4.15
2023-03-30T04:55:31.310Z,4.68
2023-03-30T04:57:03.675Z,4.75
2023-03-30T04:58:35.880Z,4.70
2023-03-30T05:00:09.886Z,5.50
2023-03-30T05:01:42.509Z,5.80
2023-03-30T05:03:15.129Z,5.90
2023-03-30T05:04:47.341Z,5.63
2023-03-30T05:06:19.543Z,6.18
2023-03-30T05:07:52.309Z,9.25
2023-03-30T05:09:25.132Z,5.65
2023-03-30T05:11:01.524Z,6.80
2023-03-30T05:12:33.804Z,5.43
2023-03-30T05:14:06.529Z,5.00
2023-03-30T05:15:39.372Z,4.60
2023-03-30T05:17:12.103Z,5.97
2023-03-30T05:18:44.972Z,5.95
2023-03-30T05:20:18.714Z,4.68
2023-03-30T05:21:51.070Z,4.63
2023-03-30T05:23:24.862Z,4.70
2023-03-30T05:24:57.173Z,5.45
2023-03-30T05:26:29.346Z,5.18
2023-03-30T05:28:01.665Z,4.38
2023-03-30T05:29:33.825Z,4.65
2023-03-30T05:31:06.484Z,4.22
2023-03-30T05:32:38.928Z,4.68
2023-03-30T05:34:11.789Z,4.45
2023-03-30T05:35:43.869Z,4.50
2023-03-30T05:37:16.334Z,4.60
2023-03-30T05:38:48.566Z,4.43
2023-03-30T05:40:20.855Z,4.57
2023-03-30T05:41:53.446Z,5.43
2023-03-30T05:43:25.692Z,4.82
2023-03-30T05:44:58.060Z,5.13
2023-03-30T05:46:30.318Z,4.88
2023-03-30T05:49:38.571Z,4.57
2023-03-30T05:51:10.668Z,4.55
2023-03-30T05:52:43.164Z,4.80
2023-03-30T05:54:15.328Z,4.47
2023-03-30T05:55:48.408Z,4.65
2023-03-30T05:57:21.545Z,5.15
2023-03-30T05:58:53.727Z,5.38
2023-03-30T06:00:26.483Z,4.70
2023-03-30T06:01:59.032Z,5.22
2023-03-30T06:03:31.426Z,5.47
2023-03-30T06:05:04.228Z,4.47
2023-03-30T06:06:36.879Z,4.60
2023-03-30T06:08:10.203Z,4.63
2023-03-30T06:09:42.700Z,4.93
2023-03-30T06:11:14.852Z,5.00
2023-03-30T06:12:47.012Z,5.47
2023-03-30T06:14:19.457Z,5.13
2023-03-30T06:15:51.835Z,4.90
2023-03-30T06:17:26.373Z,4.95
2023-03-30T06:19:09.540Z,4.10
2023-03-30T06:20:41.866Z,4.13
2023-03-30T06:22:14.066Z,3.70
2023-03-30T06:23:46.717Z,3.60
2023-03-30T06:25:22.228Z,3.80
2023-03-30T06:26:56.371Z,3.60
2023-03-30T06:28:28.992Z,3.65
2023-03-30T06:30:01.105Z,3.63
2023-03-30T06:31:34.406Z,3.70
2023-03-30T06:33:06.910Z,3.90
2023-03-30T06:34:39.119Z,4.35
2023-03-30T06:36:13.200Z,3.78
2023-03-30T06:37:45.660Z,4.30
2023-03-30T06:39:18.056Z,3.95
2023-03-30T06:40:51.569Z,4.05
2023-03-30T06:43:56.020Z,4.45
2023-03-30T06:45:28.352Z,3.97
2023-03-30T06:47:01.418Z,4.45
2023-03-30T06:48:33.628Z,4.65
2023-03-30T06:50:06.353Z,4.35
2023-03-30T06:51:38.589Z,4.47
2023-03-30T06:53:11.085Z,4.18
2023-03-30T06:54:43.185Z,4.20
2023-03-30T06:56:15.623Z,4.38
2023-03-30T06:57:47.755Z,4.40
2023-03-30T06:59:20.098Z,4.00
2023-03-30T07:00:52.826Z,4.57
2023-03-30T07:02:26.270Z,4.50
2023-03-30T07:05:30.779Z,4.80
2023-03-30T07:07:02.941Z,3.90
2023-03-30T07:08:36.281Z,4.65
2023-03-30T07:10:11.749Z,4.47
2023-03-30T07:11:43.920Z,4.28
2023-03-30T07:13:17.382Z,4.50
2023-03-30T07:16:21.932Z,4.05
2023-03-30T07:17:54.307Z,3.80
2023-03-30T07:19:26.474Z,3.97
2023-03-30T07:21:01.470Z,3.70
2023-03-30T07:22:33.863Z,3.25
2023-03-30T07:24:06.547Z,3.55
2023-03-30T07:25:40.583Z,4.10
2023-03-30T07:27:12.801Z,3.10
2023-03-30T07:28:46.171Z,3.30
2023-03-30T07:30:22.281Z,3.35
2023-03-30T07:31:57.162Z,3.53
2023-03-30T07:35:01.130Z,2.80
2023-03-30T07:36:33.471Z,3.38
2023-03-30T07:38:05.653Z,3.17
2023-03-30T07:39:38.675Z,3.00
2023-03-30T07:41:13.075Z,2.85
2023-03-30T07:42:45.198Z,2.90
2023-03-30T07:44:17.454Z,2.90
2023-03-30T07:45:49.732Z,3.28
2023-03-30T07:47:22.213Z,3.17
2023-03-30T07:48:55.408Z,3.13
2023-03-30T07:50:27.620Z,2.92
2023-03-30T07:51:59.943Z,2.97
2023-03-30T07:53:32.112Z,2.70
2023-03-30T07:55:04.702Z,2.75
2023-03-30T07:56:39.742Z,3.10
2023-03-30T07:58:12.262Z,3.10
2023-03-30T07:59:44.398Z,2.67
2023-03-30T08:01:16.836Z,2.67
2023-03-30T08:02:49.565Z,2.95
2023-03-30T08:04:24.077Z,2.90
2023-03-30T08:06:06.927Z,2.60
2023-03-30T08:07:39.511Z,2.75
2023-03-30T08:09:12.446Z,3.10
2023-03-30T08:10:45.685Z,2.78
2023-03-30T08:12:17.920Z,3.22
2023-03-30T08:13:50.181Z,2.50
2023-03-30T08:15:22.617Z,2.78
2023-03-30T08:16:55.259Z,2.70
2023-03-30T08:18:29.035Z,2.65
2023-03-30T08:20:02.289Z,2.67
2023-03-30T08:21:34.627Z,2.80
2023-03-30T08:23:08.957Z,2.45
2023-03-30T08:24:41.027Z,2.72
2023-03-30T08:26:13.334Z,2.63
2023-03-30T08:27:45.449Z,3.30
2023-03-30T08:29:17.726Z,2.88
2023-03-30T08:30:50.313Z,3.08
2023-03-30T08:32:22.801Z,2.58
2023-03-30T08:33:55.060Z,3.17
2023-03-30T08:35:27.241Z,3.20
2023-03-30T08:36:59.472Z,3.13
2023-03-30T08:38:31.637Z,3.10
2023-03-30T08:40:06.106Z,2.95
2023-03-30T08:42:01.641Z,3.00
2023-03-30T08:43:36.974Z,2.65
2023-03-30T08:45:11.435Z,2.95
2023-03-30T08:46:44.551Z,2.63
2023-03-30T08:48:22.756Z,2.90
2023-03-30T08:50:22.409Z,2.42
2023-03-30T08:51:55.407Z,2.83
2023-03-30T08:53:29.640Z,2.50
2023-03-30T08:55:02.254Z,2.75
2023-03-30T08:56:45.975Z,2.67
2023-03-30T08:58:27.561Z,3.00
2023-03-30T09:00:27.970Z,2.60
2023-03-30T09:02:12.394Z,2.92
2023-03-30T09:03:51.045Z,2.58
2023-03-30T09:05:37.942Z,2.85
2023-03-30T09:07:19.999Z,2.85
2023-03-30T09:08:56.105Z,2.67
2023-03-30T09:10:32.402Z,2.42
2023-03-30T09:12:19.172Z,3.05
2023-03-30T09:13:52.080Z,3.00
2023-03-30T09:15:37.466Z,2.72
2023-03-30T09:17:17.318Z,2.90
2023-03-30T09:18:55.852Z,2.80
2023-03-30T09:20:33.483Z,2.78
2023-03-30T09:22:06.706Z,3.00
2023-03-30T09:23:39.671Z,2.70
2023-03-30T09:25:22.965Z,2.47
2023-03-30T09:27:10.617Z,2.42
2023-03-30T09:28:48.679Z,3.00
2023-03-30T09:30:23.498Z,2.60
2023-03-30T09:32:11.341Z,2.70
2023-03-30T09:33:53.150Z,2.63
2023-03-30T09:35:45.342Z,2.90
2023-03-30T09:37:19.341Z,3.35
2023-03-30T09:38:52.631Z,2.88
2023-03-30T09:40:38.583Z,2.90
2023-03-30T09:42:39.609Z,2.63
2023-03-30T09:44:36.153Z,2.72
2023-03-30T09:46:09.654Z,2.45
2023-03-30T09:49:17.008Z,2.33
2023-03-30T09:50:52.365Z,2.90
2023-03-30T09:52:26.736Z,2.72
2023-03-30T09:54:04.802Z,2.63
2023-03-30T09:55:38.335Z,2.78
2023-03-30T09:57:31.006Z,2.45
2023-03-30T09:59:27.689Z,2.67
2023-03-30T10:01:01.058Z,3.97
2023-03-30T10:04:11.983Z,2.35
2023-03-30T10:05:44.505Z,2.80
2023-03-30T10:07:31.662Z,2.60
2023-03-30T10:09:06.740Z,2.67
2023-03-30T10:10:41.400Z,2.53
2023-03-30T10:12:13.935Z,2.60
2023-03-30T10:13:46.631Z,2.87
2023-03-30T10:15:20.105Z,2.63
2023-03-30T10:18:44.809Z,2.53
2023-03-30T10:21:02.330Z,2.70
2023-03-30T10:22:37.989Z,2.63
2023-03-30T10:24:16.283Z,2.45
2023-03-30T10:25:52.450Z,2.70
2023-03-30T10:27:34.589Z,2.55
2023-03-30T10:29:08.379Z,2.70
2023-03-30T10:30:41.141Z,3.70
2023-03-30T10:32:28.981Z,3.13
2023-03-30T10:34:02.149Z,2.75
2023-03-30T10:35:37.302Z,2.88
2023-03-30T10:37:22.871Z,2.88
2023-03-30T10:39:02.900Z,3.00
2023-03-30T10:40:44.217Z,3.40
2023-03-30T10:42:22.561Z,2.83
2023-03-30T10:43:57.783Z,2.40
2023-03-30T10:45:37.310Z,2.20
2023-03-30T10:47:17.881Z,2.13
2023-03-30T10:49:20.885Z,2.03
2023-03-30T10:51:08.181Z,2.05
2023-03-30T10:53:13.841Z,2.03
2023-03-30T10:54:52.299Z,2.50
2023-03-30T10:56:31.002Z,3.03
2023-03-30T10:58:25.348Z,2.60
2023-03-30T11:00:04.679Z,1.92
2023-03-30T11:02:01.894Z,2.00
2023-03-30T11:03:35.993Z,1.80
2023-03-30T11:05:08.057Z,2.85
2023-03-30T11:06:44.429Z,2.00
2023-03-30T11:08:20.490Z,1.73
2023-03-30T11:09:59.425Z,2.20
2023-03-30T11:11:46.077Z,2.60
2023-03-30T11:13:42.382Z,2.78
2023-03-30T11:15:23.916Z,3.22
2023-03-30T11:17:01.297Z,2.50
2023-03-30T11:18:50.440Z,2.38
2023-03-30T11:20:27.829Z,2.25
2023-03-30T11:22:09.141Z,2.80
2023-03-30T11:23:41.314Z,2.83
2023-03-30T11:25:21.922Z,2.30
2023-03-30T11:27:06.114Z,2.20
2023-03-30T11:28:54.358Z,2.15
2023-03-30T11:30:29.718Z,1.90
2023-03-30T11:32:26.551Z,2.28
2023-03-30T11:34:20.791Z,1.83
2023-03-30T11:36:20.798Z,2.08
2023-03-30T11:38:29.163Z,2.40
2023-03-30T11:40:30.998Z,2.17
2023-03-30T11:42:10.809Z,2.40
2023-03-30T11:43:43.237Z,2.55
2023-03-30T11:45:27.510Z,2.22
2023-03-30T11:47:23.057Z,2.20
2023-03-30T11:49:22.189Z,3.55
2023-03-30T11:51:06.905Z,2.88
2023-03-30T11:53:05.366Z,1.92
2023-03-30T11:55:03.636Z,1.77
2023-03-30T11:56:47.529Z,1.67
2023-03-30T11:58:39.401Z,1.40
2023-03-30T12:00:41.226Z,1.90
2023-03-30T12:02:34.801Z,2.03
2023-03-30T12:04:11.165Z,2.05
2023-03-30T12:05:48.784Z,2.00
2023-03-30T12:07:40.937Z,1.60
2023-03-30T12:09:27.008Z,1.80
2023-03-30T12:11:17.757Z,1.95
2023-03-30T12:12:52.511Z,1.90
2023-03-30T12:14:54.784Z,1.48
2023-03-30T12:16:41.120Z,1.50
2023-03-30T12:18:45.292Z,1.65
2023-03-30T12:20:21.608Z,1.60
2023-03-30T12:22:06.705Z,1.60
2023-03-30T12:23:50.276Z,1.50
2023-03-30T12:25:55.856Z,1.70
2023-03-30T12:27:29.928Z,1.92
2023-03-30T12:31:00.651Z,1.80
2023-03-30T12:32:36.331Z,2.30
2023-03-30T12:34:08.768Z,1.90
2023-03-30T12:35:50.127Z,2.20
2023-03-30T12:37:29.049Z,1.88
2023-03-30T12:39:03.006Z,2.55
2023-03-30T12:40:38.592Z,2.00
2023-03-30T12:42:27.360Z,2.28
2023-03-30T12:44:15.469Z,2.60
2023-03-30T12:46:14.419Z,2.13
2023-03-30T12:47:59.752Z,2.10
2023-03-30T12:49:38.240Z,1.80
2023-03-30T12:51:25.425Z,1.70
2023-03-30T12:53:03.775Z,2.00
2023-03-30T12:55:07.914Z,1.65
2023-03-30T12:56:51.711Z,1.73
2023-03-30T12:58:52.101Z,1.92
2023-03-30T13:00:49.134Z,1.92
2023-03-30T13:03:06.001Z,2.08
2023-03-30T13:04:39.843Z,1.70
2023-03-30T13:06:39.501Z,2.15
2023-03-30T13:08:39.382Z,1.50
2023-03-30T13:10:29.602Z,1.45
2023-03-30T13:12:01.843Z,1.77
2023-03-30T13:13:52.192Z,2.00
2023-03-30T13:15:30.293Z,1.80
2023-03-30T13:17:02.567Z,1.77
2023-03-30T13:18:40.327Z,1.85
2023-03-30T13:20:29.325Z,1.70
2023-03-30T13:22:11.984Z,1.65
2023-03-30T13:23:45.895Z,1.60
2023-03-30T13:25:21.189Z,1.58
2023-03-30T13:26:54.559Z,1.58
2023-03-30T13:30:10.626Z,1.65
2023-03-30T13:31:47.969Z,1.67
2023-03-30T13:33:22.481Z,1.70
2023-03-30T13:35:33.576Z,1.52
2023-03-30T13:37:20.851Z,1.52
2023-03-30T13:39:04.496Z,1.58
2023-03-30T13:41:03.801Z,1.60
2023-03-30T13:42:42.439Z,1.50
2023-03-30T13:46:13.246Z,1.70
2023-03-30T13:48:01.955Z,1.48
2023-03-30T13:49:54.715Z,1.50
2023-03-30T13:51:28.356Z,1.70
2023-03-30T13:53:04.838Z,2.15
2023-03-30T13:54:38.987Z,1.80
2023-03-30T13:56:11.700Z,2.20
2023-03-30T13:57:45.117Z,2.00
2023-03-30T13:59:20.829Z,1.73
2023-03-30T14:00:56.846Z,1.50
2023-03-30T14:02:30.849Z,1.50
2023-03-30T14:04:04.760Z,1.60
2023-03-30T14:05:39.156Z,1.63
2023-03-30T14:07:17.414Z,1.90
2023-03-30T14:08:52.765Z,2.08
2023-03-30T14:10:25.697Z,1.67
2023-03-30T14:11:59.574Z,2.10
2023-03-30T14:13:31.756Z,2.22
2023-03-30T14:15:04.181Z,1.67
2023-03-30T14:16:38.589Z,1.63
2023-03-30T14:20:17.945Z,1.80
2023-03-30T14:21:52.796Z,1.70
2023-03-30T14:23:38.273Z,1.80
2023-03-30T14:25:30.077Z,2.20
2023-03-30T14:27:22.588Z,1.77
2023-03-30T14:28:59.993Z,2.00
2023-03-30T14:30:32.201Z,2.00
2023-03-30T14:32:09.278Z,1.80
2023-03-30T14:33:42.155Z,2.05
2023-03-30T14:35:18.931Z,1.80
2023-03-30T14:36:51.133Z,1.80
2023-03-30T14:38:27.758Z,1.90
2023-03-30T14:40:06.810Z,1.60
2023-03-30T14:41:39.352Z,2.03
2023-03-30T14:43:16.565Z,1.90
2023-03-30T14:44:51.510Z,1.92
2023-03-30T14:46:33.058Z,2.30
2023-03-30T14:48:05.435Z,1.70
2023-03-30T14:49:38.153Z,2.20
2023-03-30T14:51:42.062Z,1.90
2023-03-30T15:31:20.135Z,2.20
2023-03-30T15:32:56.345Z,1.70
2023-03-30T15:34:28.680Z,1.98
2023-03-30T15:36:11.480Z,1.80
2023-03-30T15:38:03.359Z,2.00
2023-03-30T15:39:36.767Z,1.70
2023-03-30T15:42:42.605Z,2.00
2023-03-30T15:44:20.870Z,1.98
2023-03-30T15:45:56.150Z,2.30
2023-03-30T15:47:29.561Z,1.90
2023-03-30T15:50:36.092Z,1.90
2023-03-30T15:52:34.103Z,2.00
2023-03-30T15:54:20.787Z,1.90
2023-03-30T15:55:53.049Z,2.00
2023-03-30T15:57:29.410Z,1.90
2023-03-30T15:59:02.161Z,1.70
2023-03-30T16:00:35.222Z,1.77
2023-03-30T16:04:02.253Z,2.05
2023-03-30T16:05:35.642Z,1.85
2023-03-30T16:08:50.601Z,1.90
2023-03-30T16:10:28.661Z,2.00
2023-03-30T16:12:00.900Z,1.60
2023-03-30T16:13:33.149Z,1.65
2023-03-30T16:15:06.196Z,1.83
2023-03-30T16:16:38.443Z,1.60
2023-03-30T16:18:13.974Z,2.00
2023-03-30T16:19:46.487Z,1.90
2023-03-30T16:21:19.427Z,1.80
2023-03-30T16:22:52.196Z,1.80
2023-03-30T16:24:24.389Z,1.50
2023-03-30T16:25:58.670Z,1.80
2023-03-30T16:27:30.828Z,1.80
2023-03-30T16:29:02.951Z,1.65
2023-03-30T16:30:37.810Z,1.83
2023-03-30T16:32:10.002Z,1.98
2023-03-30T16:33:42.141Z,1.80
2023-03-30T16:35:14.386Z,1.52
2023-03-30T16:36:48.388Z,2.35
2023-03-30T16:38:20.668Z,1.70
2023-03-30T16:39:52.941Z,1.80
2023-03-30T16:41:25.170Z,1.80
2023-03-30T16:42:57.544Z,1.67
2023-03-30T16:44:29.696Z,1.77
2023-03-30T16:46:01.911Z,1.90
2023-03-30T16:47:34.224Z,2.20
2023-03-30T16:49:14.648Z,2.60
2023-03-30T16:50:50.122Z,7.45
2023-03-30T16:52:22.333Z,9.35
2023-03-30T16:53:54.513Z,11.40
2023-03-30T16:55:26.816Z,11.13
2023-03-30T16:56:59.312Z,13.20
2023-03-30T16:58:31.737Z,12.73
2023-03-30T17:00:14.475Z,3.80
2023-03-30T17:01:46.942Z,5.50
2023-03-30T17:03:21.426Z,8.77
2023-03-30T17:04:53.617Z,21.20
2023-03-30T17:06:26.101Z,21.80
2023-03-30T17:08:05.086Z,21.92
2023-03-30T17:09:37.231Z,20.30
2023-03-30T17:11:11.366Z,17.58
2023-03-30T17:12:43.706Z,19.77
2023-03-30T17:14:16.708Z,17.98
2023-03-30T17:15:48.869Z,18.55
2023-03-30T17:17:22.005Z,14.55
2023-03-30T17:18:54.189Z,13.32
2023-03-30T17:20:48.529Z,13.82
2023-03-30T17:22:20.845Z,15.35
2023-03-30T17:23:53.087Z,11.15
2023-03-30T17:25:27.121Z,12.82
2023-03-30T17:26:59.897Z,18.30
2023-03-30T17:28:35.845Z,9.75
2023-03-30T17:30:20.701Z,9.40
2023-03-30T17:31:52.968Z,9.50
2023-03-30T17:33:26.571Z,15.75
2023-03-30T17:34:58.782Z,11.07
2023-03-30T17:36:34.083Z,8.85
2023-03-30T17:38:09.519Z,8.70
2023-03-30T17:39:41.774Z,10.15
2023-03-30T17:41:14.579Z,8.20
2023-03-30T17:42:47.196Z,8.23
2023-03-30T17:44:19.359Z,8.27
2023-03-30T17:45:51.689Z,9.55
2023-03-30T17:47:23.876Z,5.40
2023-03-30T17:48:56.535Z,5.53
2023-03-30T17:50:34.460Z,6.68
2023-03-30T17:52:06.680Z,7.65
2023-03-30T17:53:39.027Z,8.05
2023-03-30T17:55:11.255Z,7.35
2023-03-30T17:56:43.572Z,10.57
2023-03-30T17:58:24.783Z,7.68
2023-03-30T17:59:57.059Z,10.68
2023-03-30T18:01:29.369Z,7.50
2023-03-30T18:03:01.750Z,8.00
2023-03-30T18:04:34.581Z,7.43
2023-03-30T18:07:39.550Z,6.45
2023-03-30T18:09:17.390Z,8.75
2023-03-30T18:10:54.876Z,8.15
2023-03-30T18:12:27.036Z,10.45
2023-03-30T18:13:59.178Z,10.60
2023-03-30T18:15:32.148Z,7.70
2023-03-30T18:17:06.737Z,5.57
2023-03-30T18:18:39.288Z,7.10
2023-03-30T18:20:31.380Z,10.50
2023-03-30T18:22:03.877Z,7.82
2023-03-30T18:23:36.281Z,6.53
2023-03-30T18:25:10.915Z,5.70
2023-03-30T18:26:49.658Z,5.80
2023-03-30T18:28:25.499Z,5.80
2023-03-30T18:29:57.711Z,5.40
2023-03-30T18:31:32.737Z,6.40
2023-03-30T18:33:05.973Z,7.88
2023-03-30T18:34:38.302Z,7.55
2023-03-30T18:36:14.026Z,7.70
2023-03-30T18:37:46.736Z,10.20
2023-03-30T18:39:20.327Z,5.30
2023-03-30T18:40:58.650Z,4.93
2023-03-30T18:42:30.764Z,5.60
2023-03-30T18:44:02.902Z,9.63
2023-03-30T18:45:38.261Z,11.40
2023-03-30T18:47:10.736Z,10.85
2023-03-30T18:48:42.922Z,13.10
2023-03-30T18:50:43.073Z,15.90
2023-03-30T18:52:16.660Z,14.90
2023-03-30T18:53:48.772Z,14.70
2023-03-30T18:55:20.914Z,15.25
2023-03-30T18:56:53.093Z,14.50
2023-03-30T18:58:30.036Z,15.43
2023-03-30T19:00:03.039Z,39.10
2023-03-30T19:01:37.190Z,14.43
2023-03-30T19:03:12.232Z,13.35
2023-03-30T19:04:44.489Z,12.35
2023-03-30T19:06:22.185Z,11.43
2023-03-30T19:07:54.530Z,10.63
2023-03-30T19:09:40.257Z,9.85
2023-03-30T19:11:19.889Z,9.75
2023-03-30T19:12:53.899Z,12.90
2023-03-30T19:14:26.226Z,13.05
2023-03-30T19:15:58.476Z,13.00
2023-03-30T19:17:30.844Z,12.57
2023-03-30T19:19:03.032Z,11.05
2023-03-30T19:20:38.262Z,10.90
2023-03-30T19:22:10.749Z,10.90
2023-03-30T19:23:43.219Z,11.68
2023-03-30T19:25:16.279Z,11.93
2023-03-30T19:26:48.505Z,11.77
2023-03-30T19:28:20.760Z,11.75
2023-03-30T19:29:52.918Z,12.85
2023-03-30T19:31:25.204Z,14.10
2023-03-30T19:32:59.059Z,14.75
2023-03-30T19:34:31.284Z,16.15
2023-03-30T19:36:03.729Z,12.07
2023-03-30T19:37:37.467Z,11.93
2023-03-30T19:39:09.737Z,11.35
2023-03-30T19:40:42.135Z,11.23
2023-03-30T19:42:14.414Z,10.68
2023-03-30T19:43:50.459Z,10.68
2023-03-30T19:45:24.054Z,11.18
2023-03-30T19:46:58.996Z,11.55
2023-03-30T19:48:31.164Z,11.63
2023-03-30T19:50:05.233Z,11.02
2023-03-30T19:51:37.343Z,10.70
2023-03-30T19:53:09.916Z,11.27
2023-03-30T19:54:42.112Z,13.20
2023-03-30T19:56:15.457Z,16.35
2023-03-30T19:57:47.949Z,12.05
2023-03-30T19:59:20.574Z,11.25
2023-03-30T20:00:52.820Z,10.55
2023-03-30T20:02:25.552Z,11.55
2023-03-30T20:04:00.125Z,11.48
2023-03-30T20:05:32.668Z,11.70
2023-03-30T20:07:05.351Z,11.30
2023-03-30T20:08:38.050Z,10.60
2023-03-30T20:10:14.416Z,9.43
2023-03-30T20:11:47.097Z,9.63
2023-03-30T20:13:23.891Z,9.13
2023-03-30T20:14:56.566Z,7.28
2023-03-30T20:16:30.627Z,6.90
2023-03-30T20:18:02.814Z,6.40
2023-03-30T20:19:35.359Z,5.85
2023-03-30T20:21:07.713Z,5.70
2023-03-30T20:22:42.642Z,4.82
2023-03-30T20:24:15.044Z,5.47
2023-03-30T20:25:49.785Z,5.45
2023-03-30T20:27:22.084Z,5.38
2023-03-30T20:28:54.300Z,5.38
2023-03-30T20:30:26.591Z,4.72
2023-03-30T20:31:59.156Z,5.00
2023-03-30T20:33:33.586Z,5.07
2023-03-30T20:35:07.944Z,4.95
2023-03-30T20:36:40.239Z,5.10
2023-03-30T20:38:12.455Z,5.30
2023-03-30T20:41:22.224Z,5.45
2023-03-30T20:42:54.341Z,5.63
2023-03-30T20:44:32.632Z,8.00
2023-03-30T20:46:09.811Z,6.32
2023-03-30T20:47:42.298Z,5.10
2023-03-30T20:49:16.224Z,5.53
2023-03-30T20:50:48.513Z,5.45
2023-03-30T20:52:22.795Z,5.05
2023-03-30T20:53:55.197Z,4.93
2023-03-30T20:55:27.635Z,5.07
2023-03-30T20:56:59.874Z,5.43
2023-03-30T20:58:32.251Z,4.93
2023-03-30T21:00:07.796Z,4.75
2023-03-30T21:01:41.322Z,4.70
2023-03-30T21:03:14.537Z,5.13
2023-03-30T21:04:50.712Z,4.80
2023-03-30T21:06:24.323Z,4.85
2023-03-30T21:08:00.192Z,4.22
2023-03-30T21:09:34.724Z,4.90
2023-03-30T21:11:07.635Z,4.85
2023-03-30T21:12:40.006Z,4.80
2023-03-30T21:14:13.204Z,4.88
2023-03-30T21:15:45.369Z,4.90
2023-03-30T21:17:17.516Z,4.88
2023-03-30T21:18:50.189Z,5.20
2023-03-30T21:20:22.401Z,5.55
2023-03-30T21:21:54.556Z,5.40
2023-03-30T21:23:27.140Z,5.15
2023-03-30T21:24:59.289Z,5.03
2023-03-30T21:26:31.577Z,5.10
2023-03-30T21:28:03.684Z,5.10
2023-03-30T21:29:35.950Z,6.65
2023-03-30T21:31:09.561Z,4.97
2023-03-30T21:32:41.791Z,5.22
2023-03-30T21:34:15.065Z,5.20
2023-03-30T21:35:51.514Z,6.22
2023-03-30T21:37:23.745Z,5.30
2023-03-30T21:38:57.947Z,5.20
2023-03-30T21:40:30.108Z,5.65
2023-03-30T21:42:03.354Z,5.07
2023-03-30T21:43:37.058Z,5.20
2023-03-30T21:45:12.171Z,5.95
2023-03-30T21:46:44.587Z,5.55
2023-03-30T21:48:16.772Z,5.65
2023-03-30T21:49:48.989Z,6.15
2023-03-30T21:51:22.132Z,6.47
2023-03-30T21:52:58.722Z,6.25
2023-03-30T21:54:31.692Z,6.30
2023-03-30T21:56:04.638Z,6.45
2023-03-30T21:57:36.958Z,5.40
2023-03-30T21:59:10.061Z,6.03
2023-03-30T22:00:48.898Z,5.85
2023-03-30T22:02:25.759Z,6.03
2023-03-30T22:03:58.035Z,6.22
2023-03-30T22:05:30.379Z,6.03
2023-03-30T22:07:02.723Z,6.05
2023-03-30T22:08:35.130Z,5.80
2023-03-30T22:10:07.645Z,5.97
2023-03-30T22:11:40.070Z,5.97
2023-03-30T22:13:12.564Z,5.93
2023-03-30T22:14:44.719Z,6.07
2023-03-30T22:16:17.905Z,6.50
2023-03-30T22:17:50.137Z,7.25
2023-03-30T22:19:25.215Z,7.28
2023-03-30T22:21:01.903Z,11.55
2023-03-30T22:22:34.062Z,6.90
2023-03-30T22:25:38.404Z,6.43
2023-03-30T22:27:11.542Z,6.10
2023-03-30T22:28:44.177Z,6.53
2023-03-30T22:30:16.647Z,6.97
2023-03-30T22:31:48.937Z,8.45
2023-03-30T22:33:21.165Z,6.85
2023-03-30T22:34:53.495Z,7.15
2023-03-30T22:36:30.286Z,7.15